createdAt,value
2022-10-03T00:02:04.580Z,8.90
2022-10-03T00:04:50.085Z,8.80
2022-10-03T00:07:32.692Z,8.70
2022-10-03T00:10:24.588Z,8.70
2022-10-03T00:12:52.113Z,8.90
2022-10-03T00:15:23.102Z,8.90
2022-10-03T00:17:53.561Z,8.80
2022-10-03T00:20:39.144Z,8.80
2022-10-03T00:23:09.397Z,8.80
2022-10-03T00:25:43.892Z,9.00
2022-10-03T00:28:26.582Z,9.00
2022-10-03T00:31:09.555Z,9.20
2022-10-03T00:33:37.857Z,9.20
2022-10-03T00:36:17.287Z,9.20
2022-10-03T00:38:59.914Z,9.10
2022-10-03T00:41:33.061Z,9.00
2022-10-03T00:44:19.432Z,8.90
2022-10-03T00:47:02.168Z,8.90
2022-10-03T00:49:29.734Z,8.90
2022-10-03T00:52:06.868Z,9.10
2022-10-03T00:54:40.104Z,9.10
2022-10-03T00:57:07.651Z,9.00
2022-10-03T00:59:48.206Z,9.00
2022-10-03T01:02:20.274Z,8.90
2022-10-03T01:04:56.670Z,8.80
2022-10-03T01:07:24.963Z,8.90
2022-10-03T01:09:52.507Z,8.90
2022-10-03T01:12:20.832Z,9.10
2022-10-03T01:14:59.955Z,9.10
2022-10-03T01:17:54.418Z,9.00
2022-10-03T01:20:30.707Z,8.90
2022-10-03T01:23:19.911Z,8.80
2022-10-03T01:26:06.086Z,8.80
2022-10-03T01:28:57.457Z,8.70
2022-10-03T01:31:33.775Z,8.90
2022-10-03T01:34:02.038Z,9.10
2022-10-03T01:36:32.508Z,9.10
2022-10-03T01:39:06.846Z,8.90
2022-10-03T01:41:49.179Z,8.90
2022-10-03T01:44:16.726Z,8.90
2022-10-03T01:46:46.787Z,8.80
2022-10-03T01:49:16.628Z,8.80
2022-10-03T01:51:59.996Z,8.70
2022-10-03T01:54:27.539Z,8.70
2022-10-03T01:57:00.642Z,8.70
2022-10-03T01:59:55.337Z,8.70
2022-10-03T02:02:34.641Z,8.70
2022-10-03T02:05:21.462Z,8.80
2022-10-03T02:07:54.934Z,8.80
2022-10-03T02:10:31.823Z,8.80
2022-10-03T02:13:24.397Z,9.00
2022-10-03T02:15:58.257Z,9.00
2022-10-03T02:18:37.642Z,9.00
2022-10-03T02:21:23.076Z,9.00
2022-10-03T02:23:51.370Z,8.90
2022-10-03T02:26:58.577Z,8.90
2022-10-03T02:29:27.173Z,8.90
2022-10-03T02:32:18.940Z,8.90
2022-10-03T02:34:55.463Z,8.80
2022-10-03T02:37:40.760Z,8.80
2022-10-03T02:40:20.209Z,8.80
2022-10-03T02:42:53.504Z,8.70
2022-10-03T02:45:29.667Z,8.70
2022-10-03T02:48:30.536Z,8.90
2022-10-03T02:51:03.399Z,8.90
2022-10-03T02:53:39.480Z,8.80
2022-10-03T02:56:44.827Z,9.00
2022-10-03T02:59:15.677Z,9.00
2022-10-03T03:01:52.918Z,9.00
2022-10-03T03:04:36.396Z,8.90
2022-10-03T03:07:03.921Z,8.90
2022-10-03T03:10:08.851Z,8.90
2022-10-03T03:13:03.738Z,8.90
2022-10-03T03:15:34.159Z,8.80
2022-10-03T03:18:07.168Z,9.10
2022-10-03T03:21:05.068Z,9.10
2022-10-03T03:24:00.456Z,9.20
2022-10-03T03:26:46.829Z,9.20
2022-10-03T03:29:32.282Z,9.10
2022-10-03T03:32:14.995Z,9.00
2022-10-03T03:34:48.543Z,9.20
2022-10-03T03:37:34.632Z,9.20
2022-10-03T03:40:17.403Z,9.10
2022-10-03T03:43:09.544Z,9.10
2022-10-03T03:45:39.590Z,9.00
2022-10-03T03:48:38.168Z,8.90
2022-10-03T03:51:24.049Z,8.90
2022-10-03T03:54:06.478Z,8.80
2022-10-03T03:56:51.824Z,8.80
2022-10-03T03:59:22.135Z,8.70
2022-10-03T04:01:52.365Z,8.70
2022-10-03T04:04:29.099Z,8.70
2022-10-03T04:07:09.345Z,8.70
2022-10-03T04:09:55.548Z,8.70
2022-10-03T04:12:44.942Z,8.60
2022-10-03T04:15:15.499Z,8.60
2022-10-03T04:18:20.006Z,8.60
2022-10-03T04:20:50.534Z,8.60
2022-10-03T04:23:23.711Z,8.60
2022-10-03T04:25:51.255Z,8.60
2022-10-03T04:28:22.615Z,8.60
2022-10-03T04:31:11.630Z,8.60
2022-10-03T04:34:06.468Z,8.60
2022-10-03T04:36:37.765Z,8.60
2022-10-03T04:39:10.940Z,8.60
2022-10-03T04:41:59.999Z,8.60
2022-10-03T04:44:36.493Z,8.60
2022-10-03T04:47:22.460Z,8.60
2022-10-03T04:49:52.683Z,8.50
2022-10-03T04:52:25.938Z,8.60
2022-10-03T04:55:02.069Z,8.60
2022-10-03T04:57:32.342Z,8.60
2022-10-03T04:59:59.877Z,8.70
2022-10-03T05:02:31.026Z,8.90
2022-10-03T05:05:16.606Z,9.00
2022-10-03T05:07:47.607Z,9.00
2022-10-03T05:10:23.915Z,8.90
2022-10-03T05:12:54.925Z,9.00
2022-10-03T05:15:25.266Z,9.00
2022-10-03T05:18:17.377Z,9.30
2022-10-03T05:20:47.895Z,9.30
2022-10-03T05:23:30.534Z,9.30
2022-10-03T05:26:39.896Z,9.30
2022-10-03T05:28:43.247Z,9.20
2022-10-03T05:31:13.606Z,9.20
2022-10-03T05:33:47.002Z,9.20
2022-10-03T05:36:26.677Z,9.20
2022-10-03T05:39:31.174Z,9.20
2022-10-03T05:42:24.009Z,9.20
2022-10-03T05:45:13.110Z,9.20
2022-10-03T05:47:58.861Z,9.20
2022-10-03T05:50:41.184Z,9.20
2022-10-03T05:53:43.546Z,9.30
2022-10-03T05:56:42.735Z,9.30
2022-10-03T05:59:40.448Z,9.30
2022-10-03T06:02:29.213Z,9.30
2022-10-03T06:05:17.789Z,9.60
2022-10-03T06:07:45.322Z,9.60
2022-10-03T06:10:37.207Z,9.50
2022-10-03T06:13:23.016Z,9.50
2022-10-03T06:16:02.072Z,9.50
2022-10-03T06:18:32.992Z,9.50
2022-10-03T06:21:09.350Z,9.40
2022-10-03T06:23:37.703Z,9.50
2022-10-03T06:26:33.320Z,9.50
2022-10-03T06:29:03.580Z,9.50
2022-10-03T06:32:01.857Z,9.50
2022-10-03T06:34:47.998Z,9.50
2022-10-03T06:37:49.255Z,9.50
2022-10-03T06:40:22.216Z,9.50
2022-10-03T06:43:01.518Z,9.50
2022-10-03T06:45:43.949Z,9.70
2022-10-03T06:48:17.303Z,9.70
2022-10-03T06:50:54.407Z,9.90
2022-10-03T06:53:27.446Z,9.90
2022-10-03T06:56:22.678Z,9.90
2022-10-03T06:59:02.629Z,10.10
2022-10-03T07:01:48.913Z,10.00
2022-10-03T07:04:40.629Z,10.00
2022-10-03T07:07:26.043Z,9.90
2022-10-03T07:10:02.475Z,9.90
2022-10-03T07:12:51.133Z,10.10
2022-10-03T07:16:13.948Z,10.10
2022-10-03T07:18:29.635Z,10.10
2022-10-03T07:21:18.378Z,10.30
2022-10-03T07:23:57.787Z,10.20
2022-10-03T07:26:25.361Z,10.20
2022-10-03T07:29:17.788Z,10.10
2022-10-03T07:31:46.129Z,10.10
2022-10-03T07:34:34.460Z,10.10
2022-10-03T07:37:35.147Z,10.10
2022-10-03T07:40:25.022Z,10.30
2022-10-03T07:43:08.202Z,10.20
2022-10-03T07:45:41.477Z,10.10
2022-10-03T07:48:26.980Z,10.10
2022-10-03T07:51:15.558Z,10.10
2022-10-03T07:53:55.231Z,10.10
2022-10-03T07:56:43.997Z,10.10
2022-10-03T07:59:20.314Z,10.10
2022-10-03T08:01:47.837Z,10.10
2022-10-03T08:04:24.400Z,10.20
2022-10-03T08:07:00.818Z,10.40
2022-10-03T08:09:40.452Z,10.50
2022-10-03T08:12:13.477Z,10.50
2022-10-03T08:14:52.900Z,10.50
2022-10-03T08:17:39.410Z,10.60
2022-10-03T08:20:19.536Z,10.60
2022-10-03T08:23:02.078Z,10.60
2022-10-03T08:25:50.900Z,10.60
2022-10-03T08:28:30.522Z,10.70
2022-10-03T08:31:04.490Z,11.00
2022-10-03T08:33:47.010Z,11.00
2022-10-03T08:36:20.334Z,11.00
2022-10-03T08:39:09.255Z,11.30
2022-10-03T08:41:46.576Z,11.30
2022-10-03T08:44:38.254Z,11.30
2022-10-03T08:47:28.366Z,11.20
2022-10-03T08:50:02.982Z,11.20
2022-10-03T08:52:57.750Z,11.30
2022-10-03T08:55:32.186Z,11.30
2022-10-03T08:58:00.529Z,11.30
2022-10-03T09:00:28.112Z,11.30
2022-10-03T09:03:34.291Z,11.30
2022-10-03T09:06:27.134Z,11.60
2022-10-03T09:09:04.572Z,11.90
2022-10-03T09:11:53.021Z,11.90
2022-10-03T09:14:32.676Z,11.90
2022-10-03T09:17:00.260Z,11.80
2022-10-03T09:19:39.807Z,11.80
2022-10-03T09:22:38.396Z,11.80
2022-10-03T09:25:24.677Z,11.90
2022-10-03T09:28:10.934Z,11.90
2022-10-03T09:30:41.872Z,12.20
2022-10-03T09:33:18.516Z,12.20
2022-10-03T09:36:05.160Z,12.30
2022-10-03T09:38:44.688Z,12.30
2022-10-03T09:41:24.225Z,12.30
2022-10-03T09:43:57.520Z,12.30
2022-10-03T09:46:36.832Z,12.40
2022-10-03T09:49:28.567Z,12.40
2022-10-03T09:52:33.419Z,12.40
2022-10-03T09:55:22.743Z,12.50
2022-10-03T09:58:08.434Z,12.60
2022-10-03T10:00:58.025Z,12.70
2022-10-03T10:03:43.802Z,12.70
2022-10-03T10:06:11.319Z,12.80
2022-10-03T10:08:50.995Z,12.80
2022-10-03T10:11:37.453Z,13.20
2022-10-03T10:14:23.188Z,13.10
2022-10-03T10:17:16.063Z,13.30
2022-10-03T10:19:58.583Z,13.30
2022-10-03T10:22:31.700Z,13.30
2022-10-03T10:25:17.502Z,13.30
2022-10-03T10:28:09.605Z,13.40
2022-10-03T10:30:59.168Z,13.50
2022-10-03T10:34:01.236Z,13.50
2022-10-03T10:36:40.895Z,13.50
2022-10-03T10:39:13.556Z,13.60
2022-10-03T10:41:49.933Z,13.70
2022-10-03T10:44:22.952Z,13.70
2022-10-03T10:47:11.810Z,13.80
2022-10-03T10:49:57.291Z,13.90
2022-10-03T10:53:01.580Z,14.20
2022-10-03T10:55:55.964Z,14.40
2022-10-03T10:58:47.415Z,14.60
2022-10-03T11:01:52.120Z,14.50
2022-10-03T11:04:34.257Z,14.40
2022-10-03T11:07:04.695Z,14.60
2022-10-03T11:09:47.537Z,14.50
2022-10-03T11:12:17.832Z,14.50
2022-10-03T11:15:22.585Z,14.50
2022-10-03T11:18:26.354Z,14.50
2022-10-03T11:21:31.019Z,14.60
2022-10-03T11:24:01.370Z,14.60
2022-10-03T11:26:50.233Z,14.60
2022-10-03T11:29:38.993Z,14.60
2022-10-03T11:32:30.957Z,14.70
2022-10-03T11:35:39.633Z,14.70
2022-10-03T11:38:22.073Z,14.80
2022-10-03T11:41:10.824Z,14.90
2022-10-03T11:44:01.987Z,15.00
2022-10-03T11:46:36.595Z,15.10
2022-10-03T11:49:25.701Z,15.50
2022-10-03T11:51:56.103Z,15.50
2022-10-03T11:54:31.511Z,15.60
2022-10-03T11:56:54.680Z,15.50
2022-10-03T11:59:26.972Z,15.50
2022-10-03T12:01:52.937Z,15.50
2022-10-03T12:04:42.282Z,15.50
2022-10-03T12:07:33.860Z,15.50
2022-10-03T12:10:13.091Z,15.60
2022-10-03T12:12:40.606Z,15.60
2022-10-03T12:15:11.124Z,15.70
2022-10-03T12:17:38.688Z,15.90
2022-10-03T12:20:21.130Z,15.90
2022-10-03T12:22:57.332Z,16.00
2022-10-03T12:25:25.632Z,16.20
2022-10-03T12:27:58.589Z,16.20
2022-10-03T12:30:26.094Z,16.30
2022-10-03T12:32:56.310Z,16.20
2022-10-03T12:35:50.981Z,16.20
2022-10-03T12:38:33.216Z,16.10
2022-10-03T12:41:18.967Z,16.20
2022-10-03T12:43:46.501Z,16.30
2022-10-03T12:46:14.852Z,16.30
2022-10-03T12:48:50.954Z,16.30
2022-10-03T12:51:38.145Z,16.30
2022-10-03T12:54:30.029Z,16.30
2022-10-03T12:57:06.521Z,16.30
2022-10-03T12:59:36.882Z,16.30
2022-10-03T13:02:23.977Z,16.40
2022-10-03T13:05:13.357Z,16.40
2022-10-03T13:07:59.449Z,16.40
2022-10-03T13:10:45.238Z,16.50
2022-10-03T13:13:24.775Z,16.70
2022-10-03T13:15:58.421Z,16.70
2022-10-03T13:18:34.802Z,16.80
2022-10-03T13:21:43.921Z,17.00
2022-10-03T13:23:47.918Z,16.80
2022-10-03T13:26:21.263Z,16.60
2022-10-03T13:29:19.528Z,16.70
2022-10-03T13:31:56.229Z,16.60
2022-10-03T13:34:23.803Z,16.40
2022-10-03T13:36:57.838Z,16.10
2022-10-03T13:39:28.285Z,16.10
2022-10-03T13:42:10.582Z,16.00
2022-10-03T13:44:38.148Z,16.20
2022-10-03T13:47:27.487Z,16.30
2022-10-03T13:50:01.338Z,16.40
2022-10-03T13:52:34.559Z,16.40
2022-10-03T13:55:20.024Z,16.40
2022-10-03T13:58:05.710Z,16.50
2022-10-03T14:00:48.383Z,16.80
2022-10-03T14:03:27.705Z,16.90
2022-10-03T14:06:01.264Z,17.20
2022-10-03T14:08:43.559Z,17.20
2022-10-03T14:11:14.077Z,17.20
2022-10-03T14:14:02.682Z,17.40
2022-10-03T14:16:33.496Z,17.20
2022-10-03T14:19:12.732Z,17.20
2022-10-03T14:22:01.620Z,17.10
2022-10-03T14:24:37.053Z,16.90
2022-10-03T14:27:05.029Z,16.70
2022-10-03T14:29:36.078Z,16.50
2022-10-03T14:32:03.649Z,16.50
2022-10-03T14:34:40.669Z,16.30
2022-10-03T14:37:16.632Z,16.30
2022-10-03T14:39:44.196Z,16.30
2022-10-03T14:42:39.281Z,16.40
2022-10-03T14:45:06.847Z,16.40
2022-10-03T14:47:36.782Z,16.30
2022-10-03T14:50:04.355Z,16.30
2022-10-03T14:52:41.769Z,16.40
2022-10-03T14:55:19.296Z,16.40
2022-10-03T14:58:09.186Z,16.50
2022-10-03T15:00:28.543Z,16.50
2022-10-03T15:02:56.166Z,16.80
2022-10-03T15:05:23.593Z,16.90
2022-10-03T15:07:51.925Z,17.20
2022-10-03T15:10:19.449Z,17.20
2022-10-03T15:12:47.772Z,17.30
2022-10-03T15:15:24.306Z,17.30
2022-10-03T15:17:57.437Z,17.30
2022-10-03T15:20:24.968Z,17.30
2022-10-03T15:22:52.534Z,17.30
2022-10-03T15:25:22.745Z,17.30
2022-10-03T15:27:50.328Z,17.30
2022-10-03T15:30:20.573Z,17.40
2022-10-03T15:32:48.127Z,17.50
2022-10-03T15:35:15.652Z,17.60
2022-10-03T15:37:53.310Z,17.80
2022-10-03T15:40:25.544Z,17.70
2022-10-03T15:42:56.672Z,17.70
2022-10-03T15:45:26.906Z,17.70
2022-10-03T15:47:54.430Z,17.60
2022-10-03T15:50:30.955Z,17.50
2022-10-03T15:53:12.466Z,17.60
2022-10-03T15:55:26.035Z,17.50
2022-10-03T15:57:53.628Z,17.30
2022-10-03T16:00:27.217Z,17.20
2022-10-03T16:02:57.608Z,17.10
2022-10-03T16:05:25.192Z,17.00
2022-10-03T16:07:58.438Z,17.10
2022-10-03T16:10:25.972Z,17.00
2022-10-03T16:12:57.220Z,16.80
2022-10-03T16:15:34.220Z,16.70
2022-10-03T16:18:02.541Z,16.60
2022-10-03T16:20:30.063Z,16.60
2022-10-03T16:23:00.226Z,16.50
2022-10-03T16:25:33.787Z,16.40
2022-10-03T16:28:07.077Z,16.30
2022-10-03T16:30:37.453Z,16.20
2022-10-03T16:33:07.783Z,16.20
2022-10-03T16:35:35.309Z,16.10
2022-10-03T16:38:02.853Z,16.20
2022-10-03T16:40:30.437Z,16.20
2022-10-03T16:42:57.972Z,16.00
2022-10-03T16:45:31.576Z,15.90
2022-10-03T16:48:16.959Z,15.80
2022-10-03T16:50:44.502Z,15.70
2022-10-03T16:53:12.040Z,15.50
2022-10-03T16:55:46.546Z,15.40
2022-10-03T16:58:38.357Z,15.30
2022-10-03T17:03:33.458Z,15.10
2022-10-03T17:06:03.284Z,15.00
2022-10-03T17:08:41.177Z,15.10
2022-10-03T17:10:56.130Z,15.10
2022-10-03T17:13:24.394Z,14.80
2022-10-03T17:15:58.061Z,14.80
2022-10-03T17:18:28.482Z,14.70
2022-10-03T17:20:56.808Z,14.50
2022-10-03T17:23:42.869Z,14.50
2022-10-03T17:26:10.394Z,14.40
2022-10-03T17:28:58.902Z,14.30
2022-10-03T17:31:29.178Z,14.20
2022-10-03T17:34:12.218Z,14.30
2022-10-03T17:37:01.984Z,14.20
2022-10-03T17:39:38.607Z,14.10
2022-10-03T17:42:24.189Z,14.00
2022-10-03T17:44:51.796Z,13.90
2022-10-03T17:47:21.739Z,13.70
2022-10-03T17:49:54.957Z,13.60
2022-10-03T17:52:22.550Z,13.50
2022-10-03T17:54:59.064Z,13.40
2022-10-03T17:57:26.610Z,13.30
2022-10-03T18:00:00.720Z,13.20
2022-10-03T18:02:36.888Z,13.20
2022-10-03T18:05:13.304Z,13.10
2022-10-03T18:07:40.832Z,13.00
2022-10-03T18:10:08.356Z,13.00
2022-10-03T18:12:38.352Z,12.90
2022-10-03T18:15:27.027Z,12.80
2022-10-03T18:18:07.050Z,12.60
2022-10-03T18:20:43.600Z,12.60
2022-10-03T18:23:11.136Z,12.60
2022-10-03T18:26:19.084Z,12.50
2022-10-03T18:28:32.837Z,12.50
2022-10-03T18:31:00.353Z,12.40
2022-10-03T18:33:30.822Z,12.30
2022-10-03T18:35:59.116Z,12.20
2022-10-03T18:38:30.335Z,12.10
2022-10-03T18:40:57.906Z,12.10
2022-10-03T18:43:26.204Z,12.30
2022-10-03T18:46:05.808Z,12.30
2022-10-03T18:48:35.969Z,12.20
2022-10-03T18:51:34.206Z,12.10
2022-10-03T18:54:07.691Z,12.00
2022-10-03T18:56:35.254Z,11.90
2022-10-03T18:59:08.535Z,12.10
2022-10-03T19:01:44.921Z,12.00
2022-10-03T19:04:12.113Z,11.90
2022-10-03T19:06:39.687Z,11.80
2022-10-03T19:09:18.790Z,11.70
2022-10-03T19:11:55.650Z,11.50
2022-10-03T19:14:47.357Z,11.50
2022-10-03T19:17:23.360Z,11.50
2022-10-03T19:19:58.574Z,11.40
2022-10-03T19:22:30.916Z,11.80
2022-10-03T19:24:59.382Z,11.70
2022-10-03T19:27:25.983Z,11.60
2022-10-03T19:29:53.557Z,11.80
2022-10-03T19:32:32.996Z,11.60
2022-10-03T19:35:00.628Z,11.50
2022-10-03T19:37:45.079Z,11.30
2022-10-03T19:40:13.825Z,11.20
2022-10-03T19:42:47.179Z,11.40
2022-10-03T19:45:14.720Z,11.40
2022-10-03T19:47:47.772Z,11.20
2022-10-03T19:50:21.461Z,11.10
2022-10-03T19:52:48.986Z,11.00
2022-10-03T19:55:24.901Z,10.90
2022-10-03T19:57:52.435Z,10.90
2022-10-03T20:00:20.011Z,11.00
2022-10-03T20:02:47.582Z,11.00
2022-10-03T20:05:18.042Z,11.00
2022-10-03T20:08:01.340Z,11.40
2022-10-03T20:10:59.535Z,11.40
2022-10-03T20:13:27.888Z,11.30
2022-10-03T20:15:55.432Z,11.30
2022-10-03T20:18:31.525Z,11.20
2022-10-03T20:20:59.100Z,11.30
2022-10-03T20:23:27.429Z,11.00
2022-10-03T20:26:13.061Z,11.00
2022-10-03T20:28:58.861Z,10.80
2022-10-03T20:31:26.477Z,10.70
2022-10-03T20:33:53.960Z,10.60
2022-10-03T20:36:22.253Z,10.40
2022-10-03T20:38:58.571Z,10.30
2022-10-03T20:41:34.791Z,10.30
2022-10-03T20:44:23.759Z,10.20
2022-10-03T20:46:51.400Z,10.10
2022-10-03T20:49:39.744Z,9.90
2022-10-03T20:52:08.036Z,9.80
2022-10-03T20:54:50.565Z,9.80
2022-10-03T20:57:30.103Z,9.80
2022-10-03T21:00:09.196Z,9.80
2022-10-03T21:02:37.551Z,9.70
2022-10-03T21:05:07.554Z,9.70
2022-10-03T21:07:52.776Z,9.70
2022-10-03T21:10:29.331Z,9.70
2022-10-03T21:13:01.744Z,9.80
2022-10-03T21:15:37.633Z,9.80
2022-10-03T21:18:05.175Z,9.80
2022-10-03T21:20:35.623Z,9.70
2022-10-03T21:23:03.149Z,9.60
2022-10-03T21:25:30.723Z,9.60
2022-10-03T21:27:58.285Z,9.60
2022-10-03T21:30:52.948Z,9.80
2022-10-03T21:33:20.473Z,9.80
2022-10-03T21:35:48.755Z,9.70
2022-10-03T21:38:28.165Z,9.60
2022-10-03T21:41:19.925Z,9.60
2022-10-03T21:43:55.993Z,9.60
2022-10-03T21:46:41.992Z,9.50
2022-10-03T21:49:33.715Z,9.40
2022-10-03T21:52:01.260Z,9.40
2022-10-03T21:54:34.466Z,9.40
2022-10-03T21:57:20.442Z,9.30
2022-10-03T22:00:12.574Z,9.30
2022-10-03T22:02:48.794Z,9.30
2022-10-03T22:05:34.661Z,9.30
2022-10-03T22:08:19.967Z,9.30
2022-10-03T22:11:05.836Z,9.50
2022-10-03T22:13:36.362Z,9.50
2022-10-03T22:16:03.935Z,9.40
2022-10-03T22:18:31.425Z,9.30
2022-10-03T22:21:05.565Z,9.30
2022-10-03T22:23:38.476Z,9.30
2022-10-03T22:26:23.941Z,9.30
2022-10-03T22:28:51.474Z,9.30
2022-10-03T22:31:27.927Z,9.20
2022-10-03T22:33:58.202Z,9.20
2022-10-03T22:36:25.728Z,9.20
2022-10-03T22:38:53.262Z,9.20
2022-10-03T22:41:21.575Z,9.20
2022-10-03T22:43:49.099Z,9.20
2022-10-03T22:46:17.477Z,9.20
2022-10-03T22:48:44.976Z,9.10
2022-10-03T22:51:12.521Z,9.20
2022-10-03T22:53:40.055Z,9.30
2022-10-03T22:56:36.019Z,9.20
2022-10-03T22:59:03.541Z,9.20
2022-10-03T23:01:31.855Z,9.10
2022-10-03T23:03:59.462Z,9.10
2022-10-03T23:06:38.709Z,9.10
2022-10-03T23:09:10.007Z,8.90
2022-10-03T23:11:37.560Z,8.90
2022-10-03T23:14:23.765Z,8.90
2022-10-03T23:16:54.027Z,8.90
2022-10-03T23:19:40.779Z,8.80
2022-10-03T23:22:08.295Z,8.80
2022-10-03T23:24:39.275Z,8.80
2022-10-03T23:27:06.732Z,8.80
2022-10-03T23:29:34.375Z,8.90
2022-10-03T23:32:10.774Z,8.80
2022-10-03T23:34:38.348Z,8.80
2022-10-03T23:37:14.618Z,8.80
2022-10-03T23:39:42.128Z,8.70
2022-10-03T23:42:18.180Z,8.60
2022-10-03T23:44:57.933Z,8.60
2022-10-03T23:47:31.495Z,8.50
2022-10-03T23:49:59.788Z,8.40
2022-10-03T23:52:28.101Z,8.40
2022-10-03T23:54:55.655Z,8.40
2022-10-03T23:57:23.179Z,8.40
2022-10-03T23:59:51.482Z,8.40
